sensor_id;sensor_type;location;lat;lon;timestamp;temperature;humidity
71237;DHT22;58984;51.960;5.582;2024-03-25T00:02:13;8.10;99.90
71237;DHT22;58984;51.960;5.582;2024-03-25T00:04:39;8.00;99.90
71237;DHT22;58984;51.960;5.582;2024-03-25T00:07:04;8.00;99.90
71237;DHT22;58984;51.960;5.582;2024-03-25T00:09:30;8.00;99.90
71237;DHT22;58984;51.960;5.582;2024-03-25T00:11:56;8.00;99.90
71237;DHT22;58984;51.960;5.582;2024-03-25T00:14:22;8.00;99.90
71237;DHT22;58984;51.960;5.582;2024-03-25T00:16:48;7.90;99.90
71237;DHT22;58984;51.960;5.582;2024-03-25T00:19:14;7.90;99.90
71237;DHT22;58984;51.960;5.582;2024-03-25T00:21:39;7.90;99.90
71237;DHT22;58984;51.960;5.582;2024-03-25T00:24:05;7.90;99.90
71237;DHT22;58984;51.960;5.582;2024-03-25T00:26:31;7.90;99.90
71237;DHT22;58984;51.960;5.582;2024-03-25T00:28:57;7.90;99.90
71237;DHT22;58984;51.960;5.582;2024-03-25T00:31:22;7.90;99.90
71237;DHT22;58984;51.960;5.582;2024-03-25T00:33:48;7.90;99.90
71237;DHT22;58984;51.960;5.582;2024-03-25T00:36:14;7.80;99.90
71237;DHT22;58984;51.960;5.582;2024-03-25T00:38:39;7.80;99.90
71237;DHT22;58984;51.960;5.582;2024-03-25T00:41:05;7.80;99.90
71237;DHT22;58984;51.960;5.582;2024-03-25T00:43:30;7.80;99.90
71237;DHT22;58984;51.960;5.582;2024-03-25T00:45:56;7.80;99.90
71237;DHT22;58984;51.960;5.582;2024-03-25T00:48:22;7.80;99.90
71237;DHT22;58984;51.960;5.582;2024-03-25T00:50:48;7.80;99.90
71237;DHT22;58984;51.960;5.582;2024-03-25T00:53:14;7.80;99.90
71237;DHT22;58984;51.960;5.582;2024-03-25T00:55:40;7.70;99.90
71237;DHT22;58984;51.960;5.582;2024-03-25T00:58:06;7.80;99.90
71237;DHT22;58984;51.960;5.582;2024-03-25T01:00:31;7.70;99.90
71237;DHT22;58984;51.960;5.582;2024-03-25T01:02:57;7.70;99.90
71237;DHT22;58984;51.960;5.582;2024-03-25T01:05:23;7.70;99.90
71237;DHT22;58984;51.960;5.582;2024-03-25T01:07:49;7.70;99.90
71237;DHT22;58984;51.960;5.582;2024-03-25T01:10:15;7.70;99.90
71237;DHT22;58984;51.960;5.582;2024-03-25T01:12:41;7.70;99.90
71237;DHT22;58984;51.960;5.582;2024-03-25T01:15:08;7.70;99.90
71237;DHT22;58984;51.960;5.582;2024-03-25T01:17:36;7.70;99.90
71237;DHT22;58984;51.960;5.582;2024-03-25T01:20:02;7.70;99.90
71237;DHT22;58984;51.960;5.582;2024-03-25T01:22:27;7.70;99.90
71237;DHT22;58984;51.960;5.582;2024-03-25T01:24:53;7.70;99.90
71237;DHT22;58984;51.960;5.582;2024-03-25T01:27:19;7.60;99.90
71237;DHT22;58984;51.960;5.582;2024-03-25T01:29:44;7.70;99.90
71237;DHT22;58984;51.960;5.582;2024-03-25T01:32:10;7.70;99.90
71237;DHT22;58984;51.960;5.582;2024-03-25T01:34:36;7.70;99.90
71237;DHT22;58984;51.960;5.582;2024-03-25T01:37:01;7.60;99.90
71237;DHT22;58984;51.960;5.582;2024-03-25T01:39:27;7.60;99.90
71237;DHT22;58984;51.960;5.582;2024-03-25T01:41:53;7.60;99.90
71237;DHT22;58984;51.960;5.582;2024-03-25T01:44:18;7.60;99.90
71237;DHT22;58984;51.960;5.582;2024-03-25T01:46:44;7.60;99.90
71237;DHT22;58984;51.960;5.582;2024-03-25T01:49:10;7.60;99.90
71237;DHT22;58984;51.960;5.582;2024-03-25T01:51:38;7.60;99.90
71237;DHT22;58984;51.960;5.582;2024-03-25T01:54:04;7.60;99.90
71237;DHT22;58984;51.960;5.582;2024-03-25T01:56:33;7.60;99.90
71237;DHT22;58984;51.960;5.582;2024-03-25T01:58:59;7.50;99.90
71237;DHT22;58984;51.960;5.582;2024-03-25T02:01:26;7.50;99.90
71237;DHT22;58984;51.960;5.582;2024-03-25T02:03:53;7.50;99.90
71237;DHT22;58984;51.960;5.582;2024-03-25T02:06:20;7.50;99.90
71237;DHT22;58984;51.960;5.582;2024-03-25T02:08:48;7.50;99.90
71237;DHT22;58984;51.960;5.582;2024-03-25T02:11:14;7.50;99.90
71237;DHT22;58984;51.960;5.582;2024-03-25T02:13:40;7.50;99.90
71237;DHT22;58984;51.960;5.582;2024-03-25T02:16:06;7.50;99.90
71237;DHT22;58984;51.960;5.582;2024-03-25T02:18:32;7.50;99.90
71237;DHT22;58984;51.960;5.582;2024-03-25T02:20:59;7.50;99.90
71237;DHT22;58984;51.960;5.582;2024-03-25T02:23:25;7.40;99.90
71237;DHT22;58984;51.960;5.582;2024-03-25T02:25:52;7.40;99.90
71237;DHT22;58984;51.960;5.582;2024-03-25T02:28:18;7.40;99.90
71237;DHT22;58984;51.960;5.582;2024-03-25T02:30:44;7.40;99.90
71237;DHT22;58984;51.960;5.582;2024-03-25T02:33:10;7.40;99.90
71237;DHT22;58984;51.960;5.582;2024-03-25T02:35:37;7.40;99.90
71237;DHT22;58984;51.960;5.582;2024-03-25T02:38:05;7.40;99.90
71237;DHT22;58984;51.960;5.582;2024-03-25T02:40:31;7.40;99.90
71237;DHT22;58984;51.960;5.582;2024-03-25T02:42:57;7.40;99.90
71237;DHT22;58984;51.960;5.582;2024-03-25T02:45:23;7.30;99.90
71237;DHT22;58984;51.960;5.582;2024-03-25T02:47:50;7.40;99.90
71237;DHT22;58984;51.960;5.582;2024-03-25T02:50:15;7.30;99.90
71237;DHT22;58984;51.960;5.582;2024-03-25T02:52:41;7.30;99.90
71237;DHT22;58984;51.960;5.582;2024-03-25T02:55:07;7.30;99.90
71237;DHT22;58984;51.960;5.582;2024-03-25T02:57:33;7.30;99.90
71237;DHT22;58984;51.960;5.582;2024-03-25T02:59:58;7.30;99.90
71237;DHT22;58984;51.960;5.582;2024-03-25T03:02:24;7.30;99.90
71237;DHT22;58984;51.960;5.582;2024-03-25T03:04:50;7.30;99.90
71237;DHT22;58984;51.960;5.582;2024-03-25T03:07:15;7.20;99.90
71237;DHT22;58984;51.960;5.582;2024-03-25T03:09:42;7.30;99.90
71237;DHT22;58984;51.960;5.582;2024-03-25T03:12:07;7.30;99.90
71237;DHT22;58984;51.960;5.582;2024-03-25T03:14:33;7.20;99.90
71237;DHT22;58984;51.960;5.582;2024-03-25T03:16:58;7.20;99.90
71237;DHT22;58984;51.960;5.582;2024-03-25T03:19:27;7.20;99.90
71237;DHT22;58984;51.960;5.582;2024-03-25T03:21:54;7.20;99.90
71237;DHT22;58984;51.960;5.582;2024-03-25T03:24:20;7.20;99.90
71237;DHT22;58984;51.960;5.582;2024-03-25T03:26:45;7.20;99.90
71237;DHT22;58984;51.960;5.582;2024-03-25T03:29:11;7.20;99.90
71237;DHT22;58984;51.960;5.582;2024-03-25T03:31:37;7.20;99.90
71237;DHT22;58984;51.960;5.582;2024-03-25T03:34:03;7.20;99.90
71237;DHT22;58984;51.960;5.582;2024-03-25T03:36:29;7.20;99.90
71237;DHT22;58984;51.960;5.582;2024-03-25T03:38:54;7.20;99.90
71237;DHT22;58984;51.960;5.582;2024-03-25T03:41:20;7.20;99.90
71237;DHT22;58984;51.960;5.582;2024-03-25T03:43:46;7.10;99.90
71237;DHT22;58984;51.960;5.582;2024-03-25T03:46:12;7.20;99.90
71237;DHT22;58984;51.960;5.582;2024-03-25T03:48:38;7.20;99.90
71237;DHT22;58984;51.960;5.582;2024-03-25T03:51:08;7.20;99.90
71237;DHT22;58984;51.960;5.582;2024-03-25T03:53:34;7.10;99.90
71237;DHT22;58984;51.960;5.582;2024-03-25T03:56:03;7.20;99.90
71237;DHT22;58984;51.960;5.582;2024-03-25T03:58:31;7.10;99.90
71237;DHT22;58984;51.960;5.582;2024-03-25T04:00:56;7.10;99.90
71237;DHT22;58984;51.960;5.582;2024-03-25T04:03:22;7.10;99.90
71237;DHT22;58984;51.960;5.582;2024-03-25T04:05:48;7.10;99.90
71237;DHT22;58984;51.960;5.582;2024-03-25T04:08:13;7.10;99.90
71237;DHT22;58984;51.960;5.582;2024-03-25T04:10:39;7.10;99.90
71237;DHT22;58984;51.960;5.582;2024-03-25T04:13:06;7.10;99.90
71237;DHT22;58984;51.960;5.582;2024-03-25T04:15:35;7.10;99.90
71237;DHT22;58984;51.960;5.582;2024-03-25T04:18:02;7.10;99.90
71237;DHT22;58984;51.960;5.582;2024-03-25T04:20:28;7.10;99.90
71237;DHT22;58984;51.960;5.582;2024-03-25T04:22:56;7.10;99.90
71237;DHT22;58984;51.960;5.582;2024-03-25T04:25:22;7.00;99.90
71237;DHT22;58984;51.960;5.582;2024-03-25T04:27:48;7.00;99.90
71237;DHT22;58984;51.960;5.582;2024-03-25T04:30:14;7.00;99.90
71237;DHT22;58984;51.960;5.582;2024-03-25T04:32:40;7.00;99.90
71237;DHT22;58984;51.960;5.582;2024-03-25T04:35:06;7.00;99.90
71237;DHT22;58984;51.960;5.582;2024-03-25T04:37:33;7.00;99.90
71237;DHT22;58984;51.960;5.582;2024-03-25T04:39:59;7.00;99.90
71237;DHT22;58984;51.960;5.582;2024-03-25T04:42:25;7.00;99.90
71237;DHT22;58984;51.960;5.582;2024-03-25T04:44:51;7.00;99.90
71237;DHT22;58984;51.960;5.582;2024-03-25T04:47:17;6.90;99.90
71237;DHT22;58984;51.960;5.582;2024-03-25T04:49:44;6.90;99.90
71237;DHT22;58984;51.960;5.582;2024-03-25T04:52:11;6.90;99.90
71237;DHT22;58984;51.960;5.582;2024-03-25T04:54:38;6.90;99.90
71237;DHT22;58984;51.960;5.582;2024-03-25T04:57:04;6.90;99.90
71237;DHT22;58984;51.960;5.582;2024-03-25T04:59:31;6.90;99.90
71237;DHT22;58984;51.960;5.582;2024-03-25T05:01:57;6.90;99.90
71237;DHT22;58984;51.960;5.582;2024-03-25T05:04:23;6.90;99.90
71237;DHT22;58984;51.960;5.582;2024-03-25T05:06:50;6.90;99.90
71237;DHT22;58984;51.960;5.582;2024-03-25T05:09:15;6.90;99.90
71237;DHT22;58984;51.960;5.582;2024-03-25T05:11:42;6.90;99.90
71237;DHT22;58984;51.960;5.582;2024-03-25T05:14:08;6.90;99.90
71237;DHT22;58984;51.960;5.582;2024-03-25T05:16:33;6.80;99.90
71237;DHT22;58984;51.960;5.582;2024-03-25T05:18:59;6.80;99.90
71237;DHT22;58984;51.960;5.582;2024-03-25T05:21:25;6.80;99.90
71237;DHT22;58984;51.960;5.582;2024-03-25T05:23:50;6.80;99.90
71237;DHT22;58984;51.960;5.582;2024-03-25T05:26:16;6.80;99.90
71237;DHT22;58984;51.960;5.582;2024-03-25T05:28:41;6.80;99.90
71237;DHT22;58984;51.960;5.582;2024-03-25T05:31:08;6.80;99.90
71237;DHT22;58984;51.960;5.582;2024-03-25T05:33:34;6.80;99.90
71237;DHT22;58984;51.960;5.582;2024-03-25T05:36:00;6.80;99.90
71237;DHT22;58984;51.960;5.582;2024-03-25T05:38:26;6.70;99.90
71237;DHT22;58984;51.960;5.582;2024-03-25T05:40:52;6.80;99.90
71237;DHT22;58984;51.960;5.582;2024-03-25T05:43:19;6.70;99.90
71237;DHT22;58984;51.960;5.582;2024-03-25T05:45:55;6.70;99.90
71237;DHT22;58984;51.960;5.582;2024-03-25T05:48:22;6.70;99.90
71237;DHT22;58984;51.960;5.582;2024-03-25T05:51:03;6.70;99.90
71237;DHT22;58984;51.960;5.582;2024-03-25T05:53:31;6.70;99.90
71237;DHT22;58984;51.960;5.582;2024-03-25T05:55:57;6.70;99.90
71237;DHT22;58984;51.960;5.582;2024-03-25T05:58:24;6.70;99.90
71237;DHT22;58984;51.960;5.582;2024-03-25T06:00:50;6.70;99.90
71237;DHT22;58984;51.960;5.582;2024-03-25T06:03:16;6.70;99.90
71237;DHT22;58984;51.960;5.582;2024-03-25T06:05:45;6.60;99.90
71237;DHT22;58984;51.960;5.582;2024-03-25T06:08:11;6.60;99.90
71237;DHT22;58984;51.960;5.582;2024-03-25T06:10:50;6.60;99.90
71237;DHT22;58984;51.960;5.582;2024-03-25T06:13:16;6.60;99.90
71237;DHT22;58984;51.960;5.582;2024-03-25T06:15:42;6.60;99.90
71237;DHT22;58984;51.960;5.582;2024-03-25T06:18:07;6.60;99.90
71237;DHT22;58984;51.960;5.582;2024-03-25T06:20:33;6.60;99.90
71237;DHT22;58984;51.960;5.582;2024-03-25T06:22:59;6.60;99.90
71237;DHT22;58984;51.960;5.582;2024-03-25T06:25:24;6.60;99.90
71237;DHT22;58984;51.960;5.582;2024-03-25T06:27:50;6.60;99.90
71237;DHT22;58984;51.960;5.582;2024-03-25T06:30:16;6.60;99.90
71237;DHT22;58984;51.960;5.582;2024-03-25T06:33:00;6.60;99.90
71237;DHT22;58984;51.960;5.582;2024-03-25T06:35:44;6.60;99.90
71237;DHT22;58984;51.960;5.582;2024-03-25T06:38:13;6.60;99.90
71237;DHT22;58984;51.960;5.582;2024-03-25T06:40:39;6.60;99.90
71237;DHT22;58984;51.960;5.582;2024-03-25T06:43:05;6.60;99.90
71237;DHT22;58984;51.960;5.582;2024-03-25T06:45:31;6.60;99.90
71237;DHT22;58984;51.960;5.582;2024-03-25T06:47:57;6.60;99.90
71237;DHT22;58984;51.960;5.582;2024-03-25T06:50:23;6.60;99.90
71237;DHT22;58984;51.960;5.582;2024-03-25T06:52:49;6.60;99.90
71237;DHT22;58984;51.960;5.582;2024-03-25T06:55:14;6.60;99.90
71237;DHT22;58984;51.960;5.582;2024-03-25T06:57:40;6.60;99.90
71237;DHT22;58984;51.960;5.582;2024-03-25T07:00:06;6.60;99.90
71237;DHT22;58984;51.960;5.582;2024-03-25T07:02:36;6.60;99.90
71237;DHT22;58984;51.960;5.582;2024-03-25T07:05:02;6.60;99.90
71237;DHT22;58984;51.960;5.582;2024-03-25T07:07:27;6.60;99.90
71237;DHT22;58984;51.960;5.582;2024-03-25T07:09:53;6.60;99.90
71237;DHT22;58984;51.960;5.582;2024-03-25T07:12:19;6.70;99.90
71237;DHT22;58984;51.960;5.582;2024-03-25T07:14:45;6.70;99.90
71237;DHT22;58984;51.960;5.582;2024-03-25T07:17:11;6.60;99.90
71237;DHT22;58984;51.960;5.582;2024-03-25T07:19:37;6.70;99.90
71237;DHT22;58984;51.960;5.582;2024-03-25T07:22:02;6.70;99.90
71237;DHT22;58984;51.960;5.582;2024-03-25T07:24:28;6.70;99.90
71237;DHT22;58984;51.960;5.582;2024-03-25T07:26:54;6.70;99.90
71237;DHT22;58984;51.960;5.582;2024-03-25T07:29:19;6.70;99.90
71237;DHT22;58984;51.960;5.582;2024-03-25T07:31:45;6.70;99.90
71237;DHT22;58984;51.960;5.582;2024-03-25T07:34:11;6.70;99.90
71237;DHT22;58984;51.960;5.582;2024-03-25T07:36:37;6.70;99.90
71237;DHT22;58984;51.960;5.582;2024-03-25T07:39:04;6.70;99.90
71237;DHT22;58984;51.960;5.582;2024-03-25T07:41:31;6.70;99.90
71237;DHT22;58984;51.960;5.582;2024-03-25T07:43:57;6.70;99.90
71237;DHT22;58984;51.960;5.582;2024-03-25T07:46:23;6.80;99.90
71237;DHT22;58984;51.960;5.582;2024-03-25T07:48:48;6.80;99.90
71237;DHT22;58984;51.960;5.582;2024-03-25T07:51:14;6.80;99.90
71237;DHT22;58984;51.960;5.582;2024-03-25T07:53:39;6.80;99.90
71237;DHT22;58984;51.960;5.582;2024-03-25T07:56:05;6.80;99.90
71237;DHT22;58984;51.960;5.582;2024-03-25T07:58:31;6.80;99.90
71237;DHT22;58984;51.960;5.582;2024-03-25T08:00:57;6.80;99.90
71237;DHT22;58984;51.960;5.582;2024-03-25T08:03:22;6.80;99.90
71237;DHT22;58984;51.960;5.582;2024-03-25T08:05:50;6.90;99.90
71237;DHT22;58984;51.960;5.582;2024-03-25T08:08:16;6.90;99.90
71237;DHT22;58984;51.960;5.582;2024-03-25T08:10:41;6.90;99.90
71237;DHT22;58984;51.960;5.582;2024-03-25T08:13:07;6.90;99.90
71237;DHT22;58984;51.960;5.582;2024-03-25T08:15:33;6.90;99.90
71237;DHT22;58984;51.960;5.582;2024-03-25T08:17:58;7.00;99.90
71237;DHT22;58984;51.960;5.582;2024-03-25T08:20:24;7.00;99.90
71237;DHT22;58984;51.960;5.582;2024-03-25T08:22:50;7.10;99.90
71237;DHT22;58984;51.960;5.582;2024-03-25T08:25:15;7.10;99.90
71237;DHT22;58984;51.960;5.582;2024-03-25T08:27:41;7.10;99.90
71237;DHT22;58984;51.960;5.582;2024-03-25T08:30:08;7.20;99.90
71237;DHT22;58984;51.960;5.582;2024-03-25T08:32:34;7.20;99.90
71237;DHT22;58984;51.960;5.582;2024-03-25T08:34:59;7.30;99.90
71237;DHT22;58984;51.960;5.582;2024-03-25T08:37:25;7.40;99.90
71237;DHT22;58984;51.960;5.582;2024-03-25T08:39:50;7.40;99.90
71237;DHT22;58984;51.960;5.582;2024-03-25T08:42:16;7.50;99.90
71237;DHT22;58984;51.960;5.582;2024-03-25T08:44:42;7.40;99.90
71237;DHT22;58984;51.960;5.582;2024-03-25T08:47:07;7.50;99.90
71237;DHT22;58984;51.960;5.582;2024-03-25T08:49:33;7.50;99.90
71237;DHT22;58984;51.960;5.582;2024-03-25T08:51:58;7.60;99.90
71237;DHT22;58984;51.960;5.582;2024-03-25T08:54:24;7.60;99.90
71237;DHT22;58984;51.960;5.582;2024-03-25T08:56:50;7.70;99.90
71237;DHT22;58984;51.960;5.582;2024-03-25T08:59:15;7.70;99.90
71237;DHT22;58984;51.960;5.582;2024-03-25T09:01:41;7.80;99.90
71237;DHT22;58984;51.960;5.582;2024-03-25T09:04:06;7.80;99.90
71237;DHT22;58984;51.960;5.582;2024-03-25T09:06:32;7.90;99.90
71237;DHT22;58984;51.960;5.582;2024-03-25T09:08:58;7.90;99.90
71237;DHT22;58984;51.960;5.582;2024-03-25T09:11:42;8.00;99.90
71237;DHT22;58984;51.960;5.582;2024-03-25T09:14:07;8.10;99.90
71237;DHT22;58984;51.960;5.582;2024-03-25T09:16:34;8.20;99.90
71237;DHT22;58984;51.960;5.582;2024-03-25T09:19:00;8.30;99.90
71237;DHT22;58984;51.960;5.582;2024-03-25T09:21:26;8.30;99.90
71237;DHT22;58984;51.960;5.582;2024-03-25T09:23:52;8.40;99.90
71237;DHT22;58984;51.960;5.582;2024-03-25T09:26:18;8.40;99.90
71237;DHT22;58984;51.960;5.582;2024-03-25T09:28:44;8.50;99.90
71237;DHT22;58984;51.960;5.582;2024-03-25T09:31:10;8.60;99.90
71237;DHT22;58984;51.960;5.582;2024-03-25T09:33:35;8.60;99.90
71237;DHT22;58984;51.960;5.582;2024-03-25T09:36:01;8.70;99.90
71237;DHT22;58984;51.960;5.582;2024-03-25T09:38:27;8.80;99.90
71237;DHT22;58984;51.960;5.582;2024-03-25T09:40:53;8.80;99.90
71237;DHT22;58984;51.960;5.582;2024-03-25T09:43:33;8.90;99.90
71237;DHT22;58984;51.960;5.582;2024-03-25T09:46:03;9.00;99.90
71237;DHT22;58984;51.960;5.582;2024-03-25T09:48:30;9.10;99.90
71237;DHT22;58984;51.960;5.582;2024-03-25T09:50:56;9.20;99.90
71237;DHT22;58984;51.960;5.582;2024-03-25T09:53:22;9.30;99.90
71237;DHT22;58984;51.960;5.582;2024-03-25T09:55:48;9.40;99.90
71237;DHT22;58984;51.960;5.582;2024-03-25T09:58:15;9.40;99.90
71237;DHT22;58984;51.960;5.582;2024-03-25T10:00:41;9.50;99.90
71237;DHT22;58984;51.960;5.582;2024-03-25T10:03:06;9.60;99.90
71237;DHT22;58984;51.960;5.582;2024-03-25T10:05:33;9.70;99.90
71237;DHT22;58984;51.960;5.582;2024-03-25T10:07:58;9.70;99.90
71237;DHT22;58984;51.960;5.582;2024-03-25T10:10:24;9.80;99.90
71237;DHT22;58984;51.960;5.582;2024-03-25T10:12:50;9.90;99.90
71237;DHT22;58984;51.960;5.582;2024-03-25T10:15:16;10.00;99.90
71237;DHT22;58984;51.960;5.582;2024-03-25T10:17:51;10.10;99.90
71237;DHT22;58984;51.960;5.582;2024-03-25T10:20:17;10.20;99.90
71237;DHT22;58984;51.960;5.582;2024-03-25T10:22:44;10.20;99.90
71237;DHT22;58984;51.960;5.582;2024-03-25T10:25:27;10.30;99.90
71237;DHT22;58984;51.960;5.582;2024-03-25T10:27:53;10.40;99.90
71237;DHT22;58984;51.960;5.582;2024-03-25T10:30:19;10.50;99.90
71237;DHT22;58984;51.960;5.582;2024-03-25T10:32:45;10.50;99.90
71237;DHT22;58984;51.960;5.582;2024-03-25T10:35:11;10.60;99.90
71237;DHT22;58984;51.960;5.582;2024-03-25T10:37:39;10.60;99.90
71237;DHT22;58984;51.960;5.582;2024-03-25T10:40:05;10.70;99.90
71237;DHT22;58984;51.960;5.582;2024-03-25T10:42:34;10.80;99.90
71237;DHT22;58984;51.960;5.582;2024-03-25T10:45:01;10.80;99.90
71237;DHT22;58984;51.960;5.582;2024-03-25T10:47:28;10.70;99.90
71237;DHT22;58984;51.960;5.582;2024-03-25T10:49:58;10.80;99.90
71237;DHT22;58984;51.960;5.582;2024-03-25T10:52:26;10.80;99.90
71237;DHT22;58984;51.960;5.582;2024-03-25T10:54:52;10.80;99.90
71237;DHT22;58984;51.960;5.582;2024-03-25T10:57:20;10.80;99.90
71237;DHT22;58984;51.960;5.582;2024-03-25T10:59:46;10.80;99.90
71237;DHT22;58984;51.960;5.582;2024-03-25T11:02:13;10.90;99.90
71237;DHT22;58984;51.960;5.582;2024-03-25T11:04:39;11.00;99.90
71237;DHT22;58984;51.960;5.582;2024-03-25T11:07:09;11.00;99.90
71237;DHT22;58984;51.960;5.582;2024-03-25T11:09:39;11.00;99.90
71237;DHT22;58984;51.960;5.582;2024-03-25T11:12:05;11.00;99.90
71237;DHT22;58984;51.960;5.582;2024-03-25T11:14:31;11.10;99.90
71237;DHT22;58984;51.960;5.582;2024-03-25T11:16:58;11.10;99.90
71237;DHT22;58984;51.960;5.582;2024-03-25T11:19:28;11.10;99.90
71237;DHT22;58984;51.960;5.582;2024-03-25T11:22:06;11.80;99.90
71237;DHT22;58984;51.960;5.582;2024-03-25T11:24:32;11.70;99.90
71237;DHT22;58984;51.960;5.582;2024-03-25T11:27:02;11.60;99.90
71237;DHT22;58984;51.960;5.582;2024-03-25T11:29:28;11.50;99.90
71237;DHT22;58984;51.960;5.582;2024-03-25T11:31:53;11.50;99.90
71237;DHT22;58984;51.960;5.582;2024-03-25T11:34:20;11.50;99.90
71237;DHT22;58984;51.960;5.582;2024-03-25T11:36:46;11.50;99.90
71237;DHT22;58984;51.960;5.582;2024-03-25T11:39:15;11.50;99.90
71237;DHT22;58984;51.960;5.582;2024-03-25T11:41:42;11.50;99.90
71237;DHT22;58984;51.960;5.582;2024-03-25T11:44:09;11.60;99.90
71237;DHT22;58984;51.960;5.582;2024-03-25T11:46:39;11.70;99.90
71237;DHT22;58984;51.960;5.582;2024-03-25T11:49:12;11.80;99.90
71237;DHT22;58984;51.960;5.582;2024-03-25T11:51:38;11.80;99.90
71237;DHT22;58984;51.960;5.582;2024-03-25T11:54:09;11.90;99.90
71237;DHT22;58984;51.960;5.582;2024-03-25T11:56:36;11.90;99.90
71237;DHT22;58984;51.960;5.582;2024-03-25T11:59:03;12.00;99.90
71237;DHT22;58984;51.960;5.582;2024-03-25T12:01:29;12.10;99.90
71237;DHT22;58984;51.960;5.582;2024-03-25T12:03:55;12.10;99.90
71237;DHT22;58984;51.960;5.582;2024-03-25T12:06:21;12.20;99.90
71237;DHT22;58984;51.960;5.582;2024-03-25T12:08:47;12.30;99.90
71237;DHT22;58984;51.960;5.582;2024-03-25T12:11:36;12.40;99.90
71237;DHT22;58984;51.960;5.582;2024-03-25T12:14:02;12.50;99.90
71237;DHT22;58984;51.960;5.582;2024-03-25T12:16:28;12.60;99.90
71237;DHT22;58984;51.960;5.582;2024-03-25T12:18:53;12.70;99.90
71237;DHT22;58984;51.960;5.582;2024-03-25T12:21:20;12.70;99.90
71237;DHT22;58984;51.960;5.582;2024-03-25T12:23:47;12.70;99.90
71237;DHT22;58984;51.960;5.582;2024-03-25T12:26:13;12.80;99.90
71237;DHT22;58984;51.960;5.582;2024-03-25T12:28:39;12.90;99.90
71237;DHT22;58984;51.960;5.582;2024-03-25T12:31:08;12.90;99.90
71237;DHT22;58984;51.960;5.582;2024-03-25T12:33:43;13.00;99.90
71237;DHT22;58984;51.960;5.582;2024-03-25T12:36:11;13.10;99.90
71237;DHT22;58984;51.960;5.582;2024-03-25T12:38:37;13.10;99.90
71237;DHT22;58984;51.960;5.582;2024-03-25T12:41:04;13.20;99.90
71237;DHT22;58984;51.960;5.582;2024-03-25T12:43:34;13.30;99.90
71237;DHT22;58984;51.960;5.582;2024-03-25T12:46:01;13.40;99.90
71237;DHT22;58984;51.960;5.582;2024-03-25T12:48:28;13.40;99.90
71237;DHT22;58984;51.960;5.582;2024-03-25T12:50:54;13.50;99.90
71237;DHT22;58984;51.960;5.582;2024-03-25T12:53:20;13.50;99.50
71237;DHT22;58984;51.960;5.582;2024-03-25T12:55:46;13.60;98.90
71237;DHT22;58984;51.960;5.582;2024-03-25T12:58:12;13.60;98.40
71237;DHT22;58984;51.960;5.582;2024-03-25T13:00:38;13.60;98.10
71237;DHT22;58984;51.960;5.582;2024-03-25T13:03:04;13.70;97.70
71237;DHT22;58984;51.960;5.582;2024-03-25T13:05:32;13.70;98.10
71237;DHT22;58984;51.960;5.582;2024-03-25T13:07:58;13.70;98.40
71237;DHT22;58984;51.960;5.582;2024-03-25T13:10:23;13.80;98.50
71237;DHT22;58984;51.960;5.582;2024-03-25T13:12:49;13.90;98.20
71237;DHT22;58984;51.960;5.582;2024-03-25T13:15:15;13.90;96.40
71237;DHT22;58984;51.960;5.582;2024-03-25T13:17:40;13.90;97.60
71237;DHT22;58984;51.960;5.582;2024-03-25T13:20:06;14.00;97.40
71237;DHT22;58984;51.960;5.582;2024-03-25T13:22:32;14.00;98.70
71237;DHT22;58984;51.960;5.582;2024-03-25T13:24:59;13.90;99.20
71237;DHT22;58984;51.960;5.582;2024-03-25T13:27:27;13.90;99.70
71237;DHT22;58984;51.960;5.582;2024-03-25T13:29:53;13.90;99.90
71237;DHT22;58984;51.960;5.582;2024-03-25T13:32:20;13.90;99.90
71237;DHT22;58984;51.960;5.582;2024-03-25T13:34:46;14.00;99.50
71237;DHT22;58984;51.960;5.582;2024-03-25T13:37:12;14.00;99.50
71237;DHT22;58984;51.960;5.582;2024-03-25T13:39:38;14.00;99.50
71237;DHT22;58984;51.960;5.582;2024-03-25T13:42:04;14.00;99.60
71237;DHT22;58984;51.960;5.582;2024-03-25T13:44:30;13.90;99.10
71237;DHT22;58984;51.960;5.582;2024-03-25T13:46:56;13.90;99.50
71237;DHT22;58984;51.960;5.582;2024-03-25T13:49:21;14.00;97.90
71237;DHT22;58984;51.960;5.582;2024-03-25T13:51:51;14.00;98.60
71237;DHT22;58984;51.960;5.582;2024-03-25T13:54:21;14.00;98.50
71237;DHT22;58984;51.960;5.582;2024-03-25T13:56:47;13.90;97.60
71237;DHT22;58984;51.960;5.582;2024-03-25T13:59:12;13.90;98.20
71237;DHT22;58984;51.960;5.582;2024-03-25T14:01:38;13.80;98.90
71237;DHT22;58984;51.960;5.582;2024-03-25T14:04:05;13.80;99.10
71237;DHT22;58984;51.960;5.582;2024-03-25T14:06:32;13.80;99.80
71237;DHT22;58984;51.960;5.582;2024-03-25T14:08:59;13.70;99.90
71237;DHT22;58984;51.960;5.582;2024-03-25T14:11:24;13.70;99.70
71237;DHT22;58984;51.960;5.582;2024-03-25T14:13:50;13.70;99.90
71237;DHT22;58984;51.960;5.582;2024-03-25T14:16:16;13.70;99.90
71237;DHT22;58984;51.960;5.582;2024-03-25T14:18:42;13.70;99.50
71237;DHT22;58984;51.960;5.582;2024-03-25T14:21:08;13.60;99.90
71237;DHT22;58984;51.960;5.582;2024-03-25T14:23:33;13.60;99.90
71237;DHT22;58984;51.960;5.582;2024-03-25T14:25:59;13.60;99.90
71237;DHT22;58984;51.960;5.582;2024-03-25T14:28:25;13.60;99.90
71237;DHT22;58984;51.960;5.582;2024-03-25T14:30:50;13.50;99.90
71237;DHT22;58984;51.960;5.582;2024-03-25T14:33:17;13.60;99.90
71237;DHT22;58984;51.960;5.582;2024-03-25T14:35:43;13.50;99.90
71237;DHT22;58984;51.960;5.582;2024-03-25T14:38:09;13.50;99.90
71237;DHT22;58984;51.960;5.582;2024-03-25T14:40:38;13.50;99.90
71237;DHT22;58984;51.960;5.582;2024-03-25T14:43:04;13.50;99.90
71237;DHT22;58984;51.960;5.582;2024-03-25T14:45:31;13.40;99.90
71237;DHT22;58984;51.960;5.582;2024-03-25T14:47:57;13.40;99.90
71237;DHT22;58984;51.960;5.582;2024-03-25T14:50:22;13.40;99.90
71237;DHT22;58984;51.960;5.582;2024-03-25T14:52:48;13.40;99.90
71237;DHT22;58984;51.960;5.582;2024-03-25T14:55:14;13.40;99.90
71237;DHT22;58984;51.960;5.582;2024-03-25T14:57:39;13.40;99.90
71237;DHT22;58984;51.960;5.582;2024-03-25T15:00:05;13.40;99.90
71237;DHT22;58984;51.960;5.582;2024-03-25T15:02:31;13.40;99.90
71237;DHT22;58984;51.960;5.582;2024-03-25T15:04:57;13.30;99.90
71237;DHT22;58984;51.960;5.582;2024-03-25T15:07:22;13.30;99.90
71237;DHT22;58984;51.960;5.582;2024-03-25T15:09:48;13.30;99.90
71237;DHT22;58984;51.960;5.582;2024-03-25T15:12:14;13.30;99.90
71237;DHT22;58984;51.960;5.582;2024-03-25T15:14:39;13.20;99.90
71237;DHT22;58984;51.960;5.582;2024-03-25T15:17:05;13.20;99.90
71237;DHT22;58984;51.960;5.582;2024-03-25T15:19:31;13.20;99.90
71237;DHT22;58984;51.960;5.582;2024-03-25T15:21:56;13.20;99.90
71237;DHT22;58984;51.960;5.582;2024-03-25T15:24:22;13.10;99.90
71237;DHT22;58984;51.960;5.582;2024-03-25T15:26:48;13.10;99.90
71237;DHT22;58984;51.960;5.582;2024-03-25T15:29:14;13.10;99.90
71237;DHT22;58984;51.960;5.582;2024-03-25T15:31:39;13.00;99.90
71237;DHT22;58984;51.960;5.582;2024-03-25T15:34:05;13.00;99.90
71237;DHT22;58984;51.960;5.582;2024-03-25T15:36:32;13.00;99.90